FVYB weather

Yomba Airport
Yomba, Mashonaland West Province, Zimbabwe

Public forecast

Using degrees Celsius for public forecast. Weather courtesy of forecast.io.

METAR (pilot weather report)

Closest report is Robert Gabriel Mugabe International Airport, 71.2 nm (131.9 km) SSE. Retrieved 2019/05/22 18:00 UTC (33 minutes ago):

FVRG 221800Z 13008KT CAVOK 15/03 Q1026 NOSIG

TAF (pilot weather forecast)

Closest forecast is Robert Gabriel Mugabe International Airport, 71.2 nm (131.9 km) SSE. Retrieved 2019/05/22 18:00 UTC (33 minutes ago):

TAF FVRG 221600Z 2218/2324 09008KT CAVOK